Time;durP1;ratioP1;P1;durP2;ratioP2;P2;SDS_P1;SDS_P2;PMS_P1;PMS_P2;Temp;Humidity;BMP_temperature;BMP_pressure;BME280_temperature;BME280_humidity;BME280_pressure;Samples;Min_cycle;Max_cycle;Signal;HPM_P1;HPM_P2
2022/06/05 06:34:09;;;;;;;;;11.00;11.00;;;;;20.61;100.00;99364.53;5401726;22;45935;-96
2022/06/05 06:36:35;;;;;;;;;12.00;10.67;;;;;20.54;100.00;99353.06;4946883;28;45408;-96
2022/06/05 06:39:00;;;;;;;;;12.00;12.00;;;;;20.61;100.00;99367.19;4932956;28;45572;-96
2022/06/05 06:41:27;;;;;;;;;10.00;9.33;;;;;20.56;100.00;99347.72;4953062;28;45529;-96
2022/06/05 06:43:52;;;;;;;;;11.33;9.33;;;;;20.64;100.00;99361.78;4931865;28;46187;-96
2022/06/05 06:46:19;;;;;;;;;13.00;10.00;;;;;20.81;100.00;99367.69;4946139;28;45451;-95
2022/06/05 06:48:44;;;;;;;;;12.33;11.00;;;;;20.86;100.00;99365.81;4960499;28;45172;-96
2022/06/05 06:51:11;;;;;;;;;12.00;10.67;;;;;20.91;100.00;99366.63;4943299;28;45450;-96
2022/06/05 06:53:38;;;;;;;;;11.00;10.00;;;;;20.95;100.00;99362.97;4977679;23;46994;-96
2022/06/05 06:56:12;;;;;;;;;13.00;11.00;;;;;21.00;100.00;99362.91;4939602;28;45289;-95
2022/06/05 06:58:39;;;;;;;;;10.00;9.33;;;;;21.03;100.00;99353.97;4936665;28;46062;-96
2022/06/05 07:01:05;;;;;;;;;11.67;10.33;;;;;21.07;100.00;99366.34;4929274;28;45516;-96
2022/06/05 07:03:30;;;;;;;;;14.33;14.33;;;;;21.05;100.00;99355.72;4963229;23;45598;-96
2022/06/05 07:05:56;;;;;;;;;14.67;13.33;;;;;21.12;100.00;99355.56;5192878;23;46668;-96
2022/06/05 07:08:22;;;;;;;;;10.33;10.33;;;;;21.01;100.00;99326.41;4941732;28;45422;-94
2022/06/05 07:10:47;;;;;;;;;10.67;10.67;;;;;21.08;100.00;99342.28;4934741;28;45741;-93
2022/06/05 07:13:12;;;;;;;;;13.00;13.00;;;;;21.10;100.00;99339.59;4944846;28;49113;-95
2022/06/05 07:15:38;;;;;;;;;13.00;12.33;;;;;21.09;100.00;99340.50;4942568;28;45571;-95
2022/06/05 07:18:06;;;;;;;;;14.33;10.67;;;;;21.13;100.00;99358.19;4927667;28;45478;-95
2022/06/05 07:20:42;;;;;;;;;15.00;12.33;;;;;21.15;100.00;99343.06;4945280;28;45611;-95
2022/06/05 07:23:09;;;;;;;;;12.00;12.00;;;;;21.14;100.00;99343.06;4965254;28;45415;-94
2022/06/05 07:25:36;;;;;;;;;9.33;9.33;;;;;21.18;100.00;99353.63;4962220;28;45360;-96
2022/06/05 07:28:02;;;;;;;;;10.33;9.00;;;;;21.21;100.00;99337.56;4964654;28;45351;-95
2022/06/05 07:30:27;;;;;;;;;10.67;9.33;;;;;21.26;100.00;99345.47;4949263;28;45307;-96
2022/06/05 07:32:53;;;;;;;;;13.33;10.33;;;;;21.41;100.00;99351.41;4964680;28;46419;-95
2022/06/05 07:35:20;;;;;;;;;11.33;10.33;;;;;21.55;100.00;99351.06;4959568;28;45501;-96
2022/06/05 07:37:46;;;;;;;;;11.00;9.00;;;;;21.77;100.00;99364.84;4938492;28;45515;-96
2022/06/05 07:40:12;;;;;;;;;9.33;8.33;;;;;22.02;100.00;99367.84;4951542;28;45443;-93
2022/06/05 07:42:39;;;;;;;;;7.33;7.33;;;;;22.30;100.00;99353.78;4970054;28;45465;-96
2022/06/05 07:45:05;;;;;;;;;10.00;9.00;;;;;22.53;100.00;99339.81;4961955;28;45375;-96
2022/06/05 08:00:29;;;;;;;;;11.67;9.00;;;;;23.69;100.00;99287.41;5446396;23;45930;-96
2022/06/05 08:02:54;;;;;;;;;10.67;7.00;;;;;23.81;100.00;99318.28;5326462;23;46387;-96
2022/06/05 08:05:19;;;;;;;;;8.00;5.33;;;;;23.82;100.00;99325.41;4952533;28;45422;-96
2022/06/05 08:07:45;;;;;;;;;8.00;8.00;;;;;23.82;100.00;99332.56;4967775;28;45370;-90
2022/06/05 08:10:10;;;;;;;;;9.00;8.00;;;;;23.83;100.00;99328.97;4962143;28;45649;-88
2022/06/05 08:12:36;;;;;;;;;9.33;8.00;;;;;23.89;100.00;99326.94;4938182;28;47296;-92
2022/06/05 08:15:08;;;;;;;;;5.00;5.00;;;;;23.93;100.00;99345.59;4945386;28;45180;-90
2022/06/05 08:17:35;;;;;;;;;7.00;6.00;;;;;24.13;100.00;99352.09;4950373;28;45412;-95
2022/06/05 08:20:00;;;;;;;;;4.00;4.00;;;;;24.18;100.00;99331.38;4971089;28;45447;-96
2022/06/05 08:22:27;;;;;;;;;6.67;5.00;;;;;24.23;100.00;99340.13;4965552;28;46797;-93
2022/06/05 08:24:53;;;;;;;;;4.33;4.33;;;;;24.21;100.00;99352.72;4950258;28;45402;-95
2022/06/05 08:27:23;;;;;;;;;4.33;4.33;;;;;24.18;100.00;99351.00;4946129;28;45333;-96
2022/06/05 08:29:48;;;;;;;;;6.00;6.00;;;;;24.16;100.00;99344.84;4971215;28;45500;-96
2022/06/05 08:32:14;;;;;;;;;5.00;5.00;;;;;24.10;100.00;99359.31;4957631;28;46148;-96
2022/06/05 08:34:42;;;;;;;;;9.00;5.50;;;;;24.00;100.00;99360.53;4957868;28;45650;-96
2022/06/05 08:42:46;;;;;;;;;8.00;7.67;;;;;23.71;100.00;99387.34;4955801;28;45085;-96
2022/06/05 08:45:36;;;;;;;;;7.00;7.00;;;;;23.68;100.00;99402.66;4973299;28;45416;-96
2022/06/05 08:53:21;;;;;;;;;8.00;6.33;;;;;22.88;100.00;99395.09;5205079;23;46446;-96
2022/06/05 08:55:48;;;;;;;;;6.67;6.33;;;;;22.65;100.00;99410.78;4976739;28;44848;-96
2022/06/05 08:58:19;;;;;;;;;5.00;5.00;;;;;22.54;100.00;99428.91;4970618;28;45706;-96
2022/06/05 09:00:52;;;;;;;;;4.67;4.00;;;;;22.46;100.00;99434.47;4973551;28;44800;-96
2022/06/05 09:03:48;;;;;;;;;7.00;5.67;;;;;22.38;100.00;99415.06;4975826;28;45800;-96
2022/06/05 09:06:36;;;;;;;;;10.00;6.00;;;;;22.39;100.00;99408.81;4954239;28;45296;-96
2022/06/05 09:09:06;;;;;;;;;10.67;5.00;;;;;22.40;100.00;99399.84;4936562;28;44875;-96
2022/06/05 09:11:43;;;;;;;;;8.00;7.33;;;;;22.53;100.00;99393.28;4941406;28;45211;-96
2022/06/05 09:14:20;;;;;;;;;7.67;6.67;;;;;22.69;100.00;99403.56;4940743;28;46269;-96
2022/06/05 09:16:50;;;;;;;;;6.33;5.33;;;;;22.75;100.00;99408.81;4948007;28;45407;-96
2022/06/05 09:19:25;;;;;;;;;5.00;5.00;;;;;22.76;100.00;99426.59;4947719;28;45377;-96
2022/06/05 09:22:01;;;;;;;;;5.67;5.67;;;;;22.75;100.00;99438.22;4947024;28;45736;-96
2022/06/05 09:24:52;;;;;;;;;7.00;6.33;;;;;22.80;100.00;99431.84;4929756;28;46295;-94
2022/06/05 09:27:51;;;;;;;;;9.67;6.00;;;;;22.86;100.00;99445.94;4944173;28;45368;-94
2022/06/05 09:30:27;;;;;;;;;6.00;6.00;;;;;22.89;100.00;99442.31;4943278;28;45554;-95
2022/06/05 09:33:35;;;;;;;;;8.00;8.00;;;;;22.84;100.00;99453.13;4961635;28;45271;-95
2022/06/05 09:36:07;;;;;;;;;10.67;9.67;;;;;22.76;100.00;99457.78;4905495;28;47295;-95
2022/06/05 09:38:40;;;;;;;;;8.33;5.67;;;;;22.69;100.00;99469.53;4901634;28;44834;-94
2022/06/05 09:41:11;;;;;;;;;6.00;6.00;;;;;22.62;100.00;99475.06;4920426;28;45297;-96
2022/06/05 09:44:03;;;;;;;;;7.00;7.00;;;;;22.57;100.00;99484.13;4923505;28;45499;-87
2022/06/05 09:46:49;;;;;;;;;8.00;7.00;;;;;22.50;100.00;99494.94;4909521;28;48219;-95
2022/06/05 09:49:38;;;;;;;;;9.67;7.33;;;;;22.46;100.00;99493.28;4923760;28;45402;-96
2022/06/05 09:52:18;;;;;;;;;7.00;7.00;;;;;22.37;100.00;99510.41;4922735;28;45533;-94
2022/06/05 09:54:55;;;;;;;;;7.67;7.00;;;;;22.29;100.00;99515.06;4925872;28;44901;-91
2022/06/05 10:00:33;;;;;;;;;13.00;12.00;;;;;22.52;100.00;99519.84;4920852;28;45515;-93
2022/06/05 10:03:12;;;;;;;;;12.67;9.67;;;;;22.87;100.00;99538.66;4910904;28;45450;-94
2022/06/05 10:05:44;;;;;;;;;10.00;9.33;;;;;23.18;100.00;99531.63;4913430;28;45475;-96
2022/06/05 10:08:18;;;;;;;;;13.00;11.67;;;;;23.40;100.00;99532.84;4897302;28;48022;-93
2022/06/05 10:10:46;;;;;;;;;11.67;11.67;;;;;23.39;100.00;99553.38;4935325;28;45539;-93
2022/06/05 10:13:19;;;;;;;;;8.00;8.00;;;;;23.34;100.00;99560.66;4947510;28;45294;-95
2022/06/05 10:15:56;;;;;;;;;10.33;10.33;;;;;23.26;100.00;99571.56;4969888;28;45453;-96
2022/06/05 10:18:35;;;;;;;;;10.67;10.67;;;;;23.06;100.00;99591.72;4963297;28;46288;-95
2022/06/05 10:21:09;;;;;;;;;11.33;11.33;;;;;22.86;100.00;99590.38;4959951;28;45397;-95
2022/06/05 10:23:50;;;;;;;;;11.33;10.00;;;;;22.73;100.00;99599.66;4956652;28;45486;-93
2022/06/05 10:26:37;;;;;;;;;11.67;11.00;;;;;22.61;100.00;99603.44;4946334;28;45774;-95
2022/06/05 10:29:22;;;;;;;;;12.33;11.00;;;;;22.51;100.00;99609.00;4968638;28;46091;-95
2022/06/05 10:31:56;;;;;;;;;13.00;11.00;;;;;22.39;100.00;99615.53;4941693;28;45576;-94
2022/06/05 10:34:44;;;;;;;;;15.33;12.33;;;;;22.29;100.00;99603.28;4922328;28;45371;-94
2022/06/05 10:37:16;;;;;;;;;14.67;13.33;;;;;22.23;100.00;99614.97;4941662;28;45350;-95
2022/06/05 10:40:02;;;;;;;;;14.67;12.00;;;;;22.17;100.00;99615.97;4960716;28;45759;-93
2022/06/05 10:42:53;;;;;;;;;10.33;10.33;;;;;22.21;100.00;99614.13;4952621;28;45371;-96
2022/06/05 10:45:54;;;;;;;;;13.67;12.00;;;;;22.29;100.00;99605.94;4955964;28;45367;-95
2022/06/05 10:48:41;;;;;;;;;11.33;9.67;;;;;22.48;100.00;99624.22;4911085;28;45446;-94
2022/06/05 10:51:29;;;;;;;;;12.33;11.00;;;;;22.77;100.00;99609.34;4899069;29;47447;-94
2022/06/05 10:54:23;;;;;;;;;12.00;10.00;;;;;22.94;100.00;99603.59;4923365;28;45479;-92
2022/06/05 10:57:03;;;;;;;;;12.00;12.00;;;;;23.09;100.00;99602.31;4906346;28;63667;-96
2022/06/05 10:59:52;;;;;;;;;10.33;9.00;;;;;23.18;100.00;99600.31;4924910;28;45455;-96
2022/06/05 11:03:00;;;;;;;;;11.00;10.00;;;;;23.19;100.00;99586.03;4933119;28;46218;-94
2022/06/05 11:05:44;;;;;;;;;12.00;9.33;;;;;23.01;100.00;99596.31;5040972;23;44802;-95
2022/06/05 11:08:28;;;;;;;;;12.67;10.67;;;;;22.85;100.00;99599.34;4993107;28;45523;-96
2022/06/05 11:14:09;;;;;;;;;9.33;9.33;;;;;22.57;100.00;99596.41;4995655;23;45978;-96
2022/06/05 11:16:49;;;;;;;;;12.33;10.00;;;;;22.72;100.00;99617.47;4956839;28;45407;-95
2022/06/05 11:19:49;;;;;;;;;15.33;13.00;;;;;22.75;100.00;99621.88;4976156;28;45522;-94
2022/06/05 11:22:16;;;;;;;;;10.67;10.00;;;;;22.77;100.00;99628.06;4972967;28;45469;-94
2022/06/05 11:24:51;;;;;;;;;15.00;9.33;;;;;22.84;100.00;99626.13;4970508;28;47253;-94
2022/06/05 11:27:22;;;;;;;;;14.33;13.67;;;;;22.89;100.00;99632.25;4968262;28;45380;-91
2022/06/05 11:33:09;;;;;;;;;12.67;12.67;;;;;22.97;100.00;99635.63;4962506;23;46020;-96
2022/06/05 11:36:08;;;;;;;;;12.00;12.00;;;;;23.11;100.00;99642.44;4935400;28;48541;-96
2022/06/05 11:38:55;;;;;;;;;10.67;9.67;;;;;23.01;100.00;99620.38;4954986;28;44717;-94
2022/06/05 11:44:28;;;;;;;;;12.00;10.67;;;;;22.75;100.00;99648.63;5036373;23;44918;-94
2022/06/05 11:47:07;;;;;;;;;13.00;13.00;;;;;22.44;100.00;99639.47;4973234;28;45447;-96
2022/06/05 11:52:29;;;;;;;;;15.33;15.33;;;;;22.25;100.00;99671.03;4940037;28;45226;-96
2022/06/05 11:55:16;;;;;;;;;18.67;16.00;;;;;22.15;100.00;99681.03;4938889;28;45317;-96
2022/06/05 11:58:17;;;;;;;;;66.75;54.00;;;;;22.08;100.00;99677.63;4931520;28;46756;-95
2022/06/05 12:01:03;;;;;;;;;41.25;35.00;;;;;22.05;100.00;99675.91;4922307;28;45683;-96
2022/06/05 12:03:36;;;;;;;;;26.50;22.75;;;;;22.31;100.00;99671.81;4911451;28;45594;-96
2022/06/05 12:06:08;;;;;;;;;14.00;11.67;;;;;22.58;100.00;99673.03;4924565;28;45278;-93
2022/06/05 12:08:39;;;;;;;;;11.33;10.33;;;;;22.72;100.00;99668.31;4910170;28;46989;-96
2022/06/05 12:11:17;;;;;;;;;14.33;12.67;;;;;22.74;100.00;99677.16;4907572;28;45484;-96
2022/06/05 12:13:57;;;;;;;;;48.50;39.50;;;;;22.93;100.00;99673.19;4930056;28;45411;-96
2022/06/05 12:16:39;;;;;;;;;19.00;17.00;;;;;23.00;100.00;99688.19;4919880;28;45527;-96
2022/06/05 12:19:14;;;;;;;;;16.00;15.00;;;;;23.11;100.00;99671.88;4918671;28;47063;-96
2022/06/05 12:21:44;;;;;;;;;37.75;33.25;;;;;23.19;100.00;99680.56;4922020;28;44783;-94
2022/06/05 12:24:31;;;;;;;;;19.33;17.67;;;;;23.18;100.00;99689.53;4900478;29;45305;-94
2022/06/05 12:27:05;;;;;;;;;23.00;20.67;;;;;23.22;100.00;99690.31;4917843;28;45582;-94
2022/06/05 12:29:40;;;;;;;;;151.25;138.50;;;;;23.32;100.00;99685.66;4924241;28;45546;-96
2022/06/05 12:32:19;;;;;;;;;52.75;42.50;;;;;23.49;100.00;99698.63;4929149;28;45312;-94
2022/06/05 12:34:50;;;;;;;;;42.00;37.75;;;;;23.82;100.00;99707.63;4947367;28;44732;-93
2022/06/05 12:37:25;;;;;;;;;15.00;14.67;;;;;24.03;100.00;99691.88;4946037;28;44769;-96
2022/06/05 12:39:54;;;;;;;;;14.00;12.67;;;;;24.55;100.00;99700.25;4924998;28;46971;-93
2022/06/05 12:42:41;;;;;;;;;30.67;29.00;;;;;24.76;100.00;99695.16;4911228;28;45428;-92
2022/06/05 12:45:20;;;;;;;;;15.67;12.33;;;;;24.64;100.00;99704.44;4921290;28;45349;-96
2022/06/05 12:48:09;;;;;;;;;27.33;23.33;;;;;24.57;100.00;99708.25;4901714;28;45322;-93
2022/06/05 12:50:44;;;;;;;;;15.00;14.67;;;;;24.50;100.00;99720.97;4927483;28;46699;-95
2022/06/05 12:56:00;;;;;;;;;56.25;43.00;;;;;24.61;100.00;99706.38;4927193;28;45469;-96
2022/06/05 12:58:56;;;;;;;;;14.67;13.33;;;;;24.52;100.00;99720.91;4932529;28;45454;-94
2022/06/05 13:01:33;;;;;;;;;14.00;13.00;;;;;24.29;100.00;99723.34;5016655;23;46539;-95
2022/06/05 13:04:03;;;;;;;;;30.50;27.50;;;;;24.04;100.00;99725.81;4939544;28;44914;-95
2022/06/05 13:06:37;;;;;;;;;15.67;13.00;;;;;23.86;100.00;99736.97;4948397;28;45693;-95
2022/06/05 13:09:23;;;;;;;;;12.67;12.33;;;;;23.72;100.00;99747.16;4952073;28;45430;-94
2022/06/05 13:12:00;;;;;;;;;11.00;11.00;;;;;23.47;100.00;99745.97;4939015;28;47529;-95
2022/06/05 13:14:45;;;;;;;;;39.25;32.50;;;;;23.33;100.00;99751.63;4952316;28;45290;-95
2022/06/05 13:17:22;;;;;;;;;20.00;17.67;;;;;23.36;100.00;99770.31;4946099;28;45498;-95
2022/06/05 13:19:54;;;;;;;;;232.00;208.75;;;;;23.35;100.00;99775.72;4935630;28;45336;-93
2022/06/05 13:22:34;;;;;;;;;26.00;23.00;;;;;23.28;100.00;99774.97;4937621;28;45489;-96
2022/06/05 13:25:18;;;;;;;;;16.00;12.00;;;;;23.24;100.00;99779.53;4945563;28;45411;-96
2022/06/05 13:28:03;;;;;;;;;174.50;158.50;;;;;23.26;100.00;99774.13;4920757;28;45621;-96
2022/06/05 13:30:34;;;;;;;;;56.25;46.50;;;;;23.26;100.00;99775.00;4937653;28;45577;-95
2022/06/05 13:33:11;;;;;;;;;82.50;71.50;;;;;23.59;100.00;99787.66;4936004;28;47877;-95
2022/06/05 13:35:52;;;;;;;;;65.75;52.75;;;;;23.99;100.00;99782.22;4916637;28;45926;-94
2022/06/05 13:38:46;;;;;;;;;273.00;246.50;;;;;24.58;100.00;99763.66;4937215;28;45431;-94
2022/06/05 13:41:23;;;;;;;;;34.00;30.75;;;;;24.76;100.00;99764.03;4919076;28;45651;-93
2022/06/05 13:44:17;;;;;;;;;26.50;23.75;;;;;24.67;100.00;99767.88;4921338;28;45504;-91
2022/06/05 13:46:55;;;;;;;;;55.00;45.75;;;;;24.62;100.00;99761.75;4905330;28;45840;-92
2022/06/05 13:49:38;;;;;;;;;73.75;60.75;;;;;24.52;100.00;99772.75;4922535;28;45299;-96
2022/06/05 13:52:25;;;;;;;;;12.33;12.33;;;;;24.45;100.00;99765.81;4926689;28;45673;-94
2022/06/05 13:55:20;;;;;;;;;12.33;12.33;;;;;24.28;100.00;99782.34;4909698;28;48307;-94
2022/06/05 13:58:10;;;;;;;;;47.00;37.50;;;;;24.29;100.00;99786.81;4922316;28;45294;-94
2022/06/05 14:00:53;;;;;;;;;16.00;14.00;;;;;24.35;100.00;99786.66;4926764;28;45413;-91
2022/06/05 14:03:57;;;;;;;;;26.00;25.67;;;;;24.63;100.00;99782.31;4919021;28;45593;-94
2022/06/05 14:06:22;;;;;;;;;16.67;14.00;;;;;24.82;100.00;99777.25;4934166;28;45323;-93
2022/06/05 14:08:59;;;;;;;;;109.67;99.67;;;;;24.80;100.00;99767.50;4908386;28;45560;-93
2022/06/05 14:11:43;;;;;;;;;44.75;37.25;;;;;24.61;100.00;99778.78;4926464;28;45417;-94
2022/06/05 14:14:09;;;;;;;;;15.33;13.00;;;;;24.54;100.00;99786.13;4932893;28;45458;-92
2022/06/05 14:16:44;;;;;;;;;13.00;13.00;;;;;25.12;100.00;99803.28;4925125;28;46732;-93
2022/06/05 14:19:26;;;;;;;;;38.75;33.75;;;;;25.45;100.00;99767.31;4909036;28;45498;-96
2022/06/05 14:21:59;;;;;;;;;11.67;9.67;;;;;25.28;100.00;99768.75;4899437;28;45354;-93
2022/06/05 14:24:29;;;;;;;;;18.33;14.00;;;;;24.95;100.00;99775.09;4931674;28;45450;-96
2022/06/05 14:26:59;;;;;;;;;35.50;31.50;;;;;24.94;100.00;99783.19;4925805;28;47676;-92
2022/06/05 14:29:30;;;;;;;;;45.00;37.00;;;;;26.28;100.00;99785.19;4921815;28;46260;-92
2022/06/05 14:32:03;;;;;;;;;116.67;107.00;;;;;28.15;100.00;99713.22;4917135;28;51376;-92
2022/06/05 14:34:41;;;;;;;;;37.50;31.50;;;;;28.75;100.00;99692.53;4923471;28;45364;-92
2022/06/05 14:37:47;;;;;;;;;22.00;17.00;;;;;29.38;100.00;99728.22;4926594;28;47313;-92
2022/06/05 14:40:17;;;;;;;;;18.00;17.00;;;;;32.23;100.00;99642.97;4824272;29;45472;-92
2022/06/05 14:43:03;;;;;;;;;87.33;78.00;;;;;33.22;100.00;99655.66;4841172;29;45558;-93
2022/06/05 14:45:39;;;;;;;;;39.25;34.75;;;;;32.71;100.00;99719.63;4853718;29;45359;-95
2022/06/05 14:48:22;;;;;;;;;21.33;17.67;;;;;31.73;100.00;99766.22;4856467;29;47136;-84
2022/06/05 14:51:02;;;;;;;;;7.00;7.00;;;;;30.86;100.00;99812.66;4845280;29;46016;-95
2022/06/05 14:53:42;;;;;;;;;18.33;17.33;;;;;30.10;100.00;99789.50;4842980;29;45443;-95
2022/06/05 14:59:21;;;;;;;;;6.00;6.00;;;;;28.93;100.00;99811.41;4840300;29;45372;-94
2022/06/05 15:02:10;;;;;;;;;10.00;8.67;;;;;28.37;100.00;99810.28;4830320;29;45321;-96
2022/06/05 15:04:54;;;;;;;;;7.33;7.00;;;;;28.03;100.00;99779.38;4844700;29;45475;-95
2022/06/05 15:07:27;;;;;;;;;8.67;8.00;;;;;27.61;100.00;99774.78;4846101;29;45561;-94
2022/06/05 15:09:58;;;;;;;;;19.67;16.00;;;;;27.30;100.00;99765.25;4863611;28;47286;-96
2022/06/05 15:12:33;;;;;;;;;8.33;7.67;;;;;27.09;100.00;99757.97;4931510;28;45422;-95
2022/06/05 15:15:09;;;;;;;;;14.00;13.00;;;;;27.03;100.00;99766.31;4936208;28;45449;-96
2022/06/05 15:17:40;;;;;;;;;10.67;10.67;;;;;26.84;100.00;99776.91;4922951;28;45415;-95
2022/06/05 15:20:15;;;;;;;;;11.00;8.00;;;;;26.60;100.00;99772.38;4938191;28;45483;-96
2022/06/05 15:22:41;;;;;;;;;7.67;7.67;;;;;26.37;100.00;99782.16;4931405;28;45735;-95
2022/06/05 15:25:24;;;;;;;;;8.33;6.67;;;;;26.11;100.00;99776.78;4930499;28;45429;-95
2022/06/05 15:28:04;;;;;;;;;9.33;5.33;;;;;25.79;100.00;99792.22;4921948;28;45420;-93
2022/06/05 15:30:40;;;;;;;;;10.00;7.00;;;;;25.48;100.00;99794.09;4939603;28;45638;-95
2022/06/05 15:33:18;;;;;;;;;5.67;5.00;;;;;25.22;100.00;99794.00;4921020;28;46089;-96
2022/06/05 15:35:51;;;;;;;;;8.00;7.00;;;;;25.09;100.00;99792.63;4909226;28;45452;-94
2022/06/05 15:38:54;;;;;;;;;9.00;8.33;;;;;25.04;100.00;99791.88;4937619;28;45332;-95
2022/06/05 15:41:36;;;;;;;;;12.67;11.00;;;;;25.16;100.00;99775.38;4944168;28;45625;-95
2022/06/05 15:44:04;;;;;;;;;5.00;5.00;;;;;25.36;100.00;99773.88;4922799;28;45321;-95
2022/06/05 15:46:52;;;;;;;;;8.00;7.33;;;;;25.44;100.00;99762.88;4931847;28;45499;-96
2022/06/05 15:50:04;;;;;;;;;8.67;7.00;;;;;25.37;100.00;99764.88;4942450;28;45541;-96
2022/06/05 15:52:54;;;;;;;;;5.67;5.67;;;;;25.28;100.00;99763.38;4920384;28;48194;-94
2022/06/05 15:56:11;;;;;;;;;6.33;5.67;;;;;25.19;100.00;99774.41;4902601;28;45617;-87
2022/06/05 15:58:42;;;;;;;;;5.67;5.00;;;;;24.97;100.00;99783.97;4911306;28;45805;-87
2022/06/05 16:01:19;;;;;;;;;5.33;5.33;;;;;24.84;100.00;99775.41;4907006;28;45453;-88
2022/06/05 16:03:49;;;;;;;;;5.00;5.00;;;;;24.72;100.00;99775.78;4919248;28;46672;-88
2022/06/05 16:06:23;;;;;;;;;10.33;7.67;;;;;24.70;100.00;99791.03;4894778;28;45847;-87
2022/06/05 16:09:05;;;;;;;;;7.33;6.00;;;;;24.83;100.00;99780.81;4892210;29;45525;-86
2022/06/05 16:11:57;;;;;;;;;7.00;7.00;;;;;24.80;100.00;99781.81;4886039;29;45541;-86
2022/06/05 16:14:28;;;;;;;;;2.33;2.33;;;;;24.61;100.00;99803.78;4899989;28;57807;-87
2022/06/05 16:17:21;;;;;;;;;6.00;4.67;;;;;24.41;100.00;99807.03;4910550;28;45471;-86
2022/06/05 16:20:07;;;;;;;;;3.33;3.33;;;;;24.19;100.00;99811.16;4916250;28;45441;-87
2022/06/05 16:23:04;;;;;;;;;5.67;4.00;;;;;24.01;100.00;99812.53;4894083;28;45618;-87
2022/06/05 16:25:50;;;;;;;;;4.33;3.67;;;;;23.85;100.00;99817.38;4927813;28;51281;-87
2022/06/05 16:28:23;;;;;;;;;4.33;4.33;;;;;23.72;100.00;99814.13;4900459;28;45416;-87
2022/06/05 16:30:49;;;;;;;;;4.00;3.00;;;;;23.66;100.00;99810.69;4905944;28;45725;-88
2022/06/05 16:33:29;;;;;;;;;3.33;2.33;;;;;23.69;100.00;99824.91;4907570;28;45436;-87
2022/06/05 16:38:59;;;;;;;;;6.33;6.33;;;;;23.94;100.00;99808.25;4923397;28;45340;-93
2022/06/05 16:41:26;;;;;;;;;6.00;6.00;;;;;23.99;100.00;99809.00;4910552;28;45484;-94
2022/06/05 16:43:57;;;;;;;;;4.00;3.67;;;;;24.00;100.00;99808.06;4941196;28;45369;-94
2022/06/05 16:46:35;;;;;;;;;7.00;7.00;;;;;24.01;100.00;99812.53;4929494;28;50681;-95
2022/06/05 16:49:08;;;;;;;;;3.00;3.00;;;;;23.95;100.00;99821.59;4919197;28;45595;-96
2022/06/05 16:51:43;;;;;;;;;5.67;5.67;;;;;23.85;100.00;99823.63;4926615;28;45369;-95
2022/06/05 16:54:15;;;;;;;;;5.00;4.00;;;;;23.75;100.00;99827.47;4912606;28;45342;-93
2022/06/05 16:57:08;;;;;;;;;6.00;5.00;;;;;23.64;100.00;99817.00;4933395;28;46248;-95
2022/06/05 16:59:58;;;;;;;;;8.00;6.33;;;;;23.55;100.00;99827.00;4929885;28;45388;-96
2022/06/05 17:02:48;;;;;;;;;6.00;6.00;;;;;23.47;100.00;99844.16;4940687;28;45411;-94
2022/06/05 17:05:13;;;;;;;;;8.67;7.00;;;;;23.42;100.00;99852.31;4927757;28;45538;-93
2022/06/05 17:08:02;;;;;;;;;6.00;6.00;;;;;23.33;100.00;99850.69;4912551;28;48132;-93
2022/06/05 17:10:31;;;;;;;;;5.33;5.00;;;;;23.21;100.00;99863.44;4921278;28;45376;-93
2022/06/05 17:13:03;;;;;;;;;6.00;5.33;;;;;23.03;100.00;99861.16;4932364;28;45485;-92
2022/06/05 17:15:40;;;;;;;;;5.00;5.00;;;;;22.86;100.00;99867.72;4933963;28;45744;-95
2022/06/05 17:18:21;;;;;;;;;5.67;5.00;;;;;22.69;100.00;99863.56;4937454;28;45412;-95
2022/06/05 17:20:53;;;;;;;;;6.00;6.00;;;;;22.53;100.00;99861.19;4923273;28;45305;-95
2022/06/05 17:23:20;;;;;;;;;11.67;9.33;;;;;22.38;100.00;99864.13;4924307;28;45429;-96
2022/06/05 17:26:10;;;;;;;;;8.00;8.00;;;;;22.22;100.00;99869.75;4924490;28;45551;-96
2022/06/05 17:28:41;;;;;;;;;6.33;6.00;;;;;22.05;100.00;99864.72;4907608;28;47092;-96
2022/06/05 17:31:27;;;;;;;;;5.00;5.00;;;;;21.88;100.00;99864.06;4931524;28;54357;-96
2022/06/05 17:33:54;;;;;;;;;6.33;6.33;;;;;21.76;100.00;99854.44;4937770;28;45379;-95
2022/06/05 17:36:43;;;;;;;;;6.33;6.00;;;;;21.62;100.00;99865.31;4944677;28;45594;-95
2022/06/05 17:39:50;;;;;;;;;7.00;7.00;;;;;21.52;100.00;99866.34;4950293;28;47360;-96
2022/06/05 17:42:53;;;;;;;;;5.00;5.00;;;;;21.39;100.00;99874.53;4932801;28;44716;-95
2022/06/05 17:45:25;;;;;;;;;17.33;13.00;;;;;21.28;100.00;99869.38;4972147;23;46099;-96
2022/06/05 17:52:58;;;;;;;;;10.00;9.00;;;;;20.85;100.00;99886.72;5498402;23;44872;-91
2022/06/05 17:55:29;;;;;;;;;12.00;9.00;;;;;20.67;100.00;99877.19;4999034;28;44765;-90
2022/06/05 17:58:12;;;;;;;;;10.00;10.00;;;;;20.54;100.00;99872.84;4980798;28;44857;-88
2022/06/05 18:00:42;;;;;;;;;8.00;7.00;;;;;20.45;100.00;99870.28;5009997;28;45259;-90
2022/06/05 18:03:16;;;;;;;;;10.33;10.00;;;;;20.36;100.00;99868.56;4977407;28;45616;-90
2022/06/05 18:05:43;;;;;;;;;12.00;9.00;;;;;20.31;100.00;99865.94;5005982;28;44802;-91
2022/06/05 18:08:18;;;;;;;;;12.00;10.00;;;;;20.29;100.00;99856.22;4996322;28;45416;-91
2022/06/05 18:11:01;;;;;;;;;8.00;8.00;;;;;20.25;100.00;99865.13;5006457;28;45425;-88
2022/06/05 18:26:27;;;;;;;;;16.33;13.33;;;;;19.96;100.00;99827.16;5134096;23;44988;-90
2022/06/05 18:28:56;;;;;;;;;12.00;12.00;;;;;20.03;100.00;99843.97;4982335;28;45308;-92
2022/06/05 18:39:43;;;;;;;;;14.00;11.00;;;;;19.95;100.00;99844.91;4921302;28;44725;-91
2022/06/05 18:42:15;;;;;;;;;11.67;10.67;;;;;19.96;100.00;99836.03;4936643;28;46280;-94
2022/06/05 18:44:43;;;;;;;;;12.00;10.00;;;;;19.93;100.00;99830.75;4925405;28;45077;-90
2022/06/05 18:47:30;;;;;;;;;8.33;8.33;;;;;19.92;100.00;99836.09;4920169;28;45118;-94
2022/06/05 18:49:56;;;;;;;;;14.00;14.00;;;;;19.88;100.00;99835.22;4923294;28;45388;-92
2022/06/05 18:52:25;;;;;;;;;13.00;10.33;;;;;19.86;100.00;99834.34;4918253;28;46873;-89
2022/06/05 18:54:54;;;;;;;;;13.67;13.67;;;;;19.83;100.00;99831.72;4935580;28;44666;-93
2022/06/05 18:57:34;;;;;;;;;18.33;15.00;;;;;19.78;100.00;99834.41;4938589;28;44700;-93
2022/06/05 19:00:22;;;;;;;;;14.33;14.00;;;;;19.72;100.00;99835.34;4918752;28;45023;-90
2022/06/05 19:02:50;;;;;;;;;13.67;13.00;;;;;19.67;100.00;99826.50;4944150;28;46272;-93
2022/06/05 19:05:39;;;;;;;;;13.67;12.00;;;;;19.64;100.00;99835.38;4943670;28;45316;-93
2022/06/05 19:08:36;;;;;;;;;12.33;12.33;;;;;19.59;100.00;99833.63;4916256;28;45263;-91
2022/06/05 19:11:15;;;;;;;;;12.00;12.00;;;;;19.55;100.00;99835.47;4930476;28;45487;-93
2022/06/05 19:13:48;;;;;;;;;12.33;11.33;;;;;19.51;100.00;99842.56;4936195;28;45466;-93
2022/06/05 19:16:22;;;;;;;;;15.00;10.67;;;;;19.47;100.00;99845.25;4937881;28;45257;-93
2022/06/05 19:19:03;;;;;;;;;11.67;10.67;;;;;19.42;100.00;99846.19;4938620;28;45473;-92
2022/06/05 19:22:04;;;;;;;;;10.67;9.33;;;;;19.38;100.00;99844.41;4934138;28;45629;-96
2022/06/05 19:24:41;;;;;;;;;9.00;8.33;;;;;19.31;100.00;99846.25;4877420;29;45648;-96
2022/06/05 19:27:15;;;;;;;;;10.33;8.67;;;;;19.25;100.00;99848.91;4860202;29;45255;-95
2022/06/05 19:29:44;;;;;;;;;7.67;7.33;;;;;19.22;100.00;99856.94;4876360;29;45490;-93
2022/06/05 19:32:15;;;;;;;;;9.00;9.00;;;;;19.18;100.00;99850.72;4861899;29;45791;-94
2022/06/05 19:34:49;;;;;;;;;7.67;7.67;;;;;19.18;100.00;99857.81;4870425;29;45498;-95
2022/06/05 19:40:17;;;;;;;;;11.00;9.00;;;;;19.09;100.00;99861.41;4859702;29;45427;-94
2022/06/05 19:42:53;;;;;;;;;12.00;7.67;;;;;19.05;100.00;99875.56;4844120;29;45560;-92
2022/06/05 19:45:38;;;;;;;;;10.00;7.00;;;;;18.99;100.00;99874.72;4855298;29;45451;-93
2022/06/05 19:48:05;;;;;;;;;7.00;6.67;;;;;18.97;100.00;99881.81;4841045;29;45574;-92
2022/06/05 19:51:03;;;;;;;;;10.67;9.00;;;;;18.95;100.00;99880.94;4848946;29;45405;-92
2022/06/05 19:53:37;;;;;;;;;8.67;8.00;;;;;18.92;100.00;99880.06;4854038;29;45393;-92